Карточка аэропорта URSS

Внимание!
Информация на этой странице в стадии наполнения.
Если вы не увидели какой-то информации, или заметили неточность - пожалуйста сообщите нам!
Спасибо!
Команда RU-STAFF
Название аэропортаСочи
Название аэропорта (англ.)Sochi
Превышение89 ft. (27.1 m.)
Координаты43°26.634', 39°56.55'
Высота перехода13000 ft
Эшелон переходаQNH>=977hPa: FL150; QNH<977hPa: FL160
Коды ответчика1060-1077
Зона ОрВДРостов-на-Дону РПИ (URRV)
Данные METARURSS 201700Z 07001MPS 9999 NSC 16/14 Q1002 R02/010070 R06/////// NOSIG RMK R06/00000MPS QFE750
Проноз погоды (TAF)URSS 201356Z 2015/2115 24003G08MPS 9999 SCT040 BECMG 2016/2018 05003G08MPS BKN010 SCT040CB BKN100 TEMPO 2021/2106 VRB07G12MPS -TSRA SCT006 BKN030CB OVC100 BECMG 2106/2107 28007G14MPS BKN040CB OVC100 TEMPO 2107/2113 VRB08G18MPS -TSRA BKN010 BKN030CB BECMG 2113/2114 28005G10MPS SCT100
NOTAMshow/hide NOTAM
AWOS   TABLE

Информация о ВПП

ВПП Длина ВПП (м.) Покрытие Курс ВПП Частота ILS
242890Цементобетон238 
202500Цементобетон202 
022500Цементобетон22110.5
062890Цементобетон58111.1

Диспетчерские позиции

Позывной Наименование органа УВД Частота
URSSFM1119.000
URSS_APPСочи-Подход124.600
URSS_DELСочи-Деливери132.700
URSS_GNDСочи-Руление119.000
URSS_R_APPСочи-Круг119.700
URSS_TWRСочи-Старт121.200



Спутниковое изображение